sensor_id;sensor_type;location;lat;lon;timestamp;pressure;altitude;pressure_sealevel;temperature;humidity
78317;BME280;67572;50.930;18.276;2023-09-19T00:00:29;98316.94;;;19.85;66.68
78317;BME280;67572;50.930;18.276;2023-09-19T00:03:32;98313.22;;;19.86;66.60
78317;BME280;67572;50.930;18.276;2023-09-19T00:06:39;98316.59;;;19.88;66.64
78317;BME280;67572;50.930;18.276;2023-09-19T00:09:43;98313.22;;;19.86;66.26
78317;BME280;67572;50.930;18.276;2023-09-19T00:12:48;98317.53;;;19.95;66.09
78317;BME280;67572;50.930;18.276;2023-09-19T00:15:51;98308.03;;;19.99;65.92
78317;BME280;67572;50.930;18.276;2023-09-19T00:18:57;98307.38;;;19.82;66.34
78317;BME280;67572;50.930;18.276;2023-09-19T00:22:01;98318.44;;;20.02;66.39
78317;BME280;67572;50.930;18.276;2023-09-19T00:25:05;98315.50;;;19.97;65.90
78317;BME280;67572;50.930;18.276;2023-09-19T00:28:10;98309.59;;;19.93;66.47
78317;BME280;67572;50.930;18.276;2023-09-19T00:31:13;98313.13;;;19.79;66.71
78317;BME280;67572;50.930;18.276;2023-09-19T00:34:17;98300.69;;;20.08;65.78
78317;BME280;67572;50.930;18.276;2023-09-19T00:37:20;98300.59;;;20.01;66.10
78317;BME280;67572;50.930;18.276;2023-09-19T00:40:24;98289.78;;;20.01;65.83
78317;BME280;67572;50.930;18.276;2023-09-19T00:43:29;98292.50;;;20.01;65.76
78317;BME280;67572;50.930;18.276;2023-09-19T00:46:38;98296.22;;;20.00;65.98
78317;BME280;67572;50.930;18.276;2023-09-19T00:49:42;98290.47;;;19.88;66.74
78317;BME280;67572;50.930;18.276;2023-09-19T00:52:46;98285.22;;;20.02;66.21
78317;BME280;67572;50.930;18.276;2023-09-19T00:55:51;98288.69;;;20.10;65.60
78317;BME280;67572;50.930;18.276;2023-09-19T00:58:57;98290.63;;;20.02;66.05
78317;BME280;67572;50.930;18.276;2023-09-19T01:02:00;98279.69;;;20.03;66.01
78317;BME280;67572;50.930;18.276;2023-09-19T01:05:06;98283.56;;;19.86;66.62
78317;BME280;67572;50.930;18.276;2023-09-19T01:08:12;98277.72;;;20.12;65.73
78317;BME280;67572;50.930;18.276;2023-09-19T01:11:24;98273.50;;;19.80;67.00
78317;BME280;67572;50.930;18.276;2023-09-19T01:14:37;98273.16;;;19.98;66.40
78317;BME280;67572;50.930;18.276;2023-09-19T01:17:47;98261.63;;;19.89;66.62
78317;BME280;67572;50.930;18.276;2023-09-19T01:20:57;98266.72;;;19.84;66.85
78317;BME280;67572;50.930;18.276;2023-09-19T01:24:22;98257.25;;;19.88;66.58
78317;BME280;67572;50.930;18.276;2023-09-19T01:27:57;98267.00;;;19.89;66.72
78317;BME280;67572;50.930;18.276;2023-09-19T01:31:11;98263.19;;;19.83;67.03
78317;BME280;67572;50.930;18.276;2023-09-19T01:34:14;98255.53;;;19.87;66.91
78317;BME280;67572;50.930;18.276;2023-09-19T01:37:19;98264.19;;;19.67;67.66
78317;BME280;67572;50.930;18.276;2023-09-19T01:40:27;98263.06;;;19.62;67.79
78317;BME280;67572;50.930;18.276;2023-09-19T01:43:34;98254.19;;;19.53;68.18
78317;BME280;67572;50.930;18.276;2023-09-19T01:46:41;98254.69;;;19.57;68.15
78317;BME280;67572;50.930;18.276;2023-09-19T01:49:53;98259.38;;;19.40;68.88
78317;BME280;67572;50.930;18.276;2023-09-19T01:53:05;98252.31;;;19.39;68.79
78317;BME280;67572;50.930;18.276;2023-09-19T01:56:17;98257.69;;;19.39;69.03
78317;BME280;67572;50.930;18.276;2023-09-19T01:59:28;98264.19;;;19.30;69.27
78317;BME280;67572;50.930;18.276;2023-09-19T02:02:37;98266.97;;;19.22;69.59
78317;BME280;67572;50.930;18.276;2023-09-19T02:05:48;98266.44;;;19.41;68.88
78317;BME280;67572;50.930;18.276;2023-09-19T02:08:52;98273.50;;;19.42;69.35
78317;BME280;67572;50.930;18.276;2023-09-19T02:11:57;98270.78;;;19.27;70.08
78317;BME280;67572;50.930;18.276;2023-09-19T02:15:01;98267.28;;;19.56;68.93
78317;BME280;67572;50.930;18.276;2023-09-19T02:18:06;98269.09;;;19.64;68.15
78317;BME280;67572;50.930;18.276;2023-09-19T02:21:09;98266.47;;;19.56;68.56
78317;BME280;67572;50.930;18.276;2023-09-19T02:24:14;98272.50;;;19.43;69.51
78317;BME280;67572;50.930;18.276;2023-09-19T02:27:18;98282.75;;;19.25;70.69
78317;BME280;67572;50.930;18.276;2023-09-19T02:30:21;98274.22;;;18.98;72.06
78317;BME280;67572;50.930;18.276;2023-09-19T02:33:29;98278.31;;;19.09;72.47
78317;BME280;67572;50.930;18.276;2023-09-19T02:36:35;98276.00;;;18.83;74.57
78317;BME280;67572;50.930;18.276;2023-09-19T02:39:39;98276.19;;;19.04;74.31
78317;BME280;67572;50.930;18.276;2023-09-19T02:42:42;98279.47;;;19.15;72.88
78317;BME280;67572;50.930;18.276;2023-09-19T02:45:51;98269.72;;;19.13;73.27
78317;BME280;67572;50.930;18.276;2023-09-19T02:48:57;98271.84;;;19.18;72.10
78317;BME280;67572;50.930;18.276;2023-09-19T02:52:00;98273.88;;;19.39;71.34
78317;BME280;67572;50.930;18.276;2023-09-19T02:55:06;98280.81;;;19.33;71.79
78317;BME280;67572;50.930;18.276;2023-09-19T02:58:11;98272.69;;;19.19;72.17
78317;BME280;67572;50.930;18.276;2023-09-19T03:01:17;98268.38;;;19.09;72.46
78317;BME280;67572;50.930;18.276;2023-09-19T03:04:22;98262.75;;;18.96;73.49
78317;BME280;67572;50.930;18.276;2023-09-19T03:07:28;98272.88;;;18.94;73.70
78317;BME280;67572;50.930;18.276;2023-09-19T03:10:31;98272.22;;;18.92;74.25
78317;BME280;67572;50.930;18.276;2023-09-19T03:13:35;98275.16;;;18.82;74.87
78317;BME280;67572;50.930;18.276;2023-09-19T03:16:40;98274.16;;;18.83;75.28
78317;BME280;67572;50.930;18.276;2023-09-19T03:19:50;98265.38;;;18.81;75.88
78317;BME280;67572;50.930;18.276;2023-09-19T03:22:53;98270.00;;;18.65;77.08
78317;BME280;67572;50.930;18.276;2023-09-19T03:25:57;98268.56;;;18.54;77.96
78317;BME280;67572;50.930;18.276;2023-09-19T03:29:03;98274.84;;;18.46;79.16
78317;BME280;67572;50.930;18.276;2023-09-19T03:32:10;98285.31;;;18.33;80.21
78317;BME280;67572;50.930;18.276;2023-09-19T03:35:15;98283.13;;;18.37;80.59
78317;BME280;67572;50.930;18.276;2023-09-19T03:38:19;98273.25;;;18.21;82.15
78317;BME280;67572;50.930;18.276;2023-09-19T03:41:24;98275.81;;;18.14;83.00
78317;BME280;67572;50.930;18.276;2023-09-19T03:44:27;98285.25;;;18.10;84.04
78317;BME280;67572;50.930;18.276;2023-09-19T03:47:31;98291.63;;;18.09;84.58
78317;BME280;67572;50.930;18.276;2023-09-19T03:50:38;98298.50;;;18.12;85.26
78317;BME280;67572;50.930;18.276;2023-09-19T03:53:41;98303.94;;;18.03;85.76
78317;BME280;67572;50.930;18.276;2023-09-19T03:56:44;98296.19;;;18.09;86.21
78317;BME280;67572;50.930;18.276;2023-09-19T03:59:48;98288.59;;;18.12;86.04
78317;BME280;67572;50.930;18.276;2023-09-19T04:02:52;98283.03;;;18.22;85.61
78317;BME280;67572;50.930;18.276;2023-09-19T04:05:59;98290.44;;;18.12;86.09
78317;BME280;67572;50.930;18.276;2023-09-19T04:09:03;98293.13;;;18.12;86.05
78317;BME280;67572;50.930;18.276;2023-09-19T04:12:08;98290.97;;;18.15;85.98
78317;BME280;67572;50.930;18.276;2023-09-19T04:15:12;98289.56;;;18.19;85.77
78317;BME280;67572;50.930;18.276;2023-09-19T04:18:15;98293.63;;;18.23;85.80
78317;BME280;67572;50.930;18.276;2023-09-19T04:21:20;98290.56;;;18.26;85.71
78317;BME280;67572;50.930;18.276;2023-09-19T04:24:23;98286.16;;;18.34;85.12
78317;BME280;67572;50.930;18.276;2023-09-19T04:27:26;98290.88;;;18.32;85.07
78317;BME280;67572;50.930;18.276;2023-09-19T04:30:30;98290.94;;;18.54;84.31
78317;BME280;67572;50.930;18.276;2023-09-19T04:33:34;98287.00;;;18.65;83.12
78317;BME280;67572;50.930;18.276;2023-09-19T04:36:39;98286.50;;;18.70;82.95
78317;BME280;67572;50.930;18.276;2023-09-19T04:39:42;98297.53;;;18.52;83.56
78317;BME280;67572;50.930;18.276;2023-09-19T04:42:45;98297.22;;;18.47;83.92
78317;BME280;67572;50.930;18.276;2023-09-19T04:45:58;98295.06;;;18.34;85.26
78317;BME280;67572;50.930;18.276;2023-09-19T04:49:02;98295.06;;;18.34;85.42
78317;BME280;67572;50.930;18.276;2023-09-19T04:52:07;98309.25;;;18.20;86.75
78317;BME280;67572;50.930;18.276;2023-09-19T04:55:10;98309.59;;;18.17;87.09
78317;BME280;67572;50.930;18.276;2023-09-19T04:58:19;98311.81;;;18.05;88.30
78317;BME280;67572;50.930;18.276;2023-09-19T05:01:22;98301.06;;;18.05;88.30
78317;BME280;67572;50.930;18.276;2023-09-19T05:04:25;98304.25;;;18.09;88.46
78317;BME280;67572;50.930;18.276;2023-09-19T05:07:31;98305.91;;;18.18;88.09
78317;BME280;67572;50.930;18.276;2023-09-19T05:10:36;98308.59;;;18.18;88.35
78317;BME280;67572;50.930;18.276;2023-09-19T05:13:40;98318.47;;;18.25;87.92
78317;BME280;67572;50.930;18.276;2023-09-19T05:16:44;98315.44;;;18.28;87.91
78317;BME280;67572;50.930;18.276;2023-09-19T05:19:48;98323.25;;;18.15;88.61
78317;BME280;67572;50.930;18.276;2023-09-19T05:22:59;98313.94;;;18.26;88.11
78317;BME280;67572;50.930;18.276;2023-09-19T05:26:04;98311.94;;;18.20;88.48
78317;BME280;67572;50.930;18.276;2023-09-19T05:29:07;98318.00;;;18.22;88.76
78317;BME280;67572;50.930;18.276;2023-09-19T05:32:11;98314.78;;;18.26;88.14
78317;BME280;67572;50.930;18.276;2023-09-19T05:35:14;98318.59;;;18.40;87.70
78317;BME280;67572;50.930;18.276;2023-09-19T05:38:19;98314.34;;;18.54;87.13
78317;BME280;67572;50.930;18.276;2023-09-19T05:41:22;98321.75;;;18.52;86.63
78317;BME280;67572;50.930;18.276;2023-09-19T05:44:25;98318.22;;;18.43;87.64
78317;BME280;67572;50.930;18.276;2023-09-19T05:47:28;98315.25;;;18.38;88.17
78317;BME280;67572;50.930;18.276;2023-09-19T05:50:32;98323.50;;;18.28;89.02
78317;BME280;67572;50.930;18.276;2023-09-19T05:53:37;98326.06;;;18.22;89.21
78317;BME280;67572;50.930;18.276;2023-09-19T05:56:41;98337.19;;;18.11;90.36
78317;BME280;67572;50.930;18.276;2023-09-19T05:59:44;98338.44;;;17.92;91.14
78317;BME280;67572;50.930;18.276;2023-09-19T06:02:50;98347.13;;;18.02;90.59
78317;BME280;67572;50.930;18.276;2023-09-19T06:05:54;98349.16;;;18.08;90.86
78317;BME280;67572;50.930;18.276;2023-09-19T06:09:00;98358.03;;;18.17;90.14
78317;BME280;67572;50.930;18.276;2023-09-19T06:12:04;98364.59;;;18.22;89.90
78317;BME280;67572;50.930;18.276;2023-09-19T06:15:08;98368.78;;;18.25;89.63
78317;BME280;67572;50.930;18.276;2023-09-19T06:18:14;98366.09;;;18.17;89.88
78317;BME280;67572;50.930;18.276;2023-09-19T06:21:22;98375.13;;;18.40;89.22
78317;BME280;67572;50.930;18.276;2023-09-19T06:24:26;98381.97;;;18.51;88.50
78317;BME280;67572;50.930;18.276;2023-09-19T06:27:30;98391.91;;;18.50;88.79
78317;BME280;67572;50.930;18.276;2023-09-19T06:30:33;98401.34;;;18.46;88.49
78317;BME280;67572;50.930;18.276;2023-09-19T06:33:37;98406.72;;;18.46;88.42
78317;BME280;67572;50.930;18.276;2023-09-19T06:36:41;98413.59;;;18.57;88.50
78317;BME280;67572;50.930;18.276;2023-09-19T06:39:52;98415.25;;;18.58;87.35
78317;BME280;67572;50.930;18.276;2023-09-19T06:42:55;98419.03;;;18.41;87.53
78317;BME280;67572;50.930;18.276;2023-09-19T06:45:58;98421.16;;;18.62;87.44
78317;BME280;67572;50.930;18.276;2023-09-19T06:49:02;98431.69;;;18.88;86.67
78317;BME280;67572;50.930;18.276;2023-09-19T06:52:08;98434.06;;;18.82;86.12
78317;BME280;67572;50.930;18.276;2023-09-19T06:55:13;98445.59;;;18.99;85.80
78317;BME280;67572;50.930;18.276;2023-09-19T06:58:18;98444.53;;;19.08;85.14
78317;BME280;67572;50.930;18.276;2023-09-19T07:01:22;98454.00;;;19.04;84.12
78317;BME280;67572;50.930;18.276;2023-09-19T07:04:27;98460.25;;;19.05;83.84
78317;BME280;67572;50.930;18.276;2023-09-19T07:07:30;98458.06;;;19.31;82.84
78317;BME280;67572;50.930;18.276;2023-09-19T07:10:38;98463.66;;;19.30;82.25
78317;BME280;67572;50.930;18.276;2023-09-19T07:13:44;98466.56;;;19.51;81.52
78317;BME280;67572;50.930;18.276;2023-09-19T07:16:47;98478.50;;;19.49;79.69
78317;BME280;67572;50.930;18.276;2023-09-19T07:19:51;98477.16;;;19.53;78.57
78317;BME280;67572;50.930;18.276;2023-09-19T07:22:55;98479.25;;;19.74;78.30
78317;BME280;67572;50.930;18.276;2023-09-19T07:25:59;98473.53;;;19.91;77.80
78317;BME280;67572;50.930;18.276;2023-09-19T07:29:03;98472.31;;;19.94;76.46
78317;BME280;67572;50.930;18.276;2023-09-19T07:32:06;98477.28;;;20.28;76.28
78317;BME280;67572;50.930;18.276;2023-09-19T07:35:10;98478.22;;;19.98;75.37
78317;BME280;67572;50.930;18.276;2023-09-19T07:38:14;98467.44;;;19.98;76.14
78317;BME280;67572;50.930;18.276;2023-09-19T07:41:19;98481.31;;;20.09;75.35
78317;BME280;67572;50.930;18.276;2023-09-19T07:44:23;98481.75;;;19.75;74.95
78317;BME280;67572;50.930;18.276;2023-09-19T07:47:27;98482.91;;;19.81;74.53
78317;BME280;67572;50.930;18.276;2023-09-19T07:50:33;98479.69;;;20.00;74.86
78317;BME280;67572;50.930;18.276;2023-09-19T07:53:38;98480.16;;;19.89;73.91
78317;BME280;67572;50.930;18.276;2023-09-19T07:56:43;98479.19;;;19.82;73.54
78317;BME280;67572;50.930;18.276;2023-09-19T07:59:47;98484.28;;;19.77;74.65
78317;BME280;67572;50.930;18.276;2023-09-19T08:02:50;98487.88;;;19.69;74.21
78317;BME280;67572;50.930;18.276;2023-09-19T08:06:02;98504.00;;;19.77;74.75
78317;BME280;67572;50.930;18.276;2023-09-19T08:09:06;98500.59;;;19.52;73.93
78317;BME280;67572;50.930;18.276;2023-09-19T08:12:14;98496.59;;;19.71;74.86
78317;BME280;67572;50.930;18.276;2023-09-19T08:15:19;98513.22;;;19.52;75.33
78317;BME280;67572;50.930;18.276;2023-09-19T08:18:23;98512.38;;;19.51;75.68
78317;BME280;67572;50.930;18.276;2023-09-19T08:21:26;98517.06;;;19.65;75.46
78317;BME280;67572;50.930;18.276;2023-09-19T08:24:31;98517.41;;;19.62;75.42
78317;BME280;67572;50.930;18.276;2023-09-19T08:27:37;98511.72;;;19.57;75.35
78317;BME280;67572;50.930;18.276;2023-09-19T08:30:40;98509.00;;;19.49;75.53
78317;BME280;67572;50.930;18.276;2023-09-19T08:33:43;98512.88;;;19.55;76.62
78317;BME280;67572;50.930;18.276;2023-09-19T08:36:53;98513.03;;;19.53;77.22
78317;BME280;67572;50.930;18.276;2023-09-19T08:39:58;98515.09;;;19.51;77.45
78317;BME280;67572;50.930;18.276;2023-09-19T08:43:03;98519.31;;;19.46;78.09
78317;BME280;67572;50.930;18.276;2023-09-19T08:46:10;98520.91;;;19.32;77.66
78317;BME280;67572;50.930;18.276;2023-09-19T08:49:22;98519.75;;;19.26;78.13
78317;BME280;67572;50.930;18.276;2023-09-19T08:52:36;98528.03;;;19.17;78.84
78317;BME280;67572;50.930;18.276;2023-09-19T08:55:43;98526.00;;;19.19;78.93
78317;BME280;67572;50.930;18.276;2023-09-19T08:58:57;98526.84;;;19.19;78.21
78317;BME280;67572;50.930;18.276;2023-09-19T09:02:03;98526.72;;;19.12;78.58
78317;BME280;67572;50.930;18.276;2023-09-19T09:05:08;98534.50;;;18.99;79.09
78317;BME280;67572;50.930;18.276;2023-09-19T09:08:13;98535.84;;;18.95;78.74
78317;BME280;67572;50.930;18.276;2023-09-19T09:11:17;98544.31;;;18.92;79.02
78317;BME280;67572;50.930;18.276;2023-09-19T09:14:22;98545.50;;;18.90;78.79
78317;BME280;67572;50.930;18.276;2023-09-19T09:17:26;98552.34;;;19.00;79.10
78317;BME280;67572;50.930;18.276;2023-09-19T09:20:30;98556.25;;;18.98;78.74
78317;BME280;67572;50.930;18.276;2023-09-19T09:23:34;98556.94;;;18.83;79.03
78317;BME280;67572;50.930;18.276;2023-09-19T09:26:43;98566.22;;;18.73;78.91
78317;BME280;67572;50.930;18.276;2023-09-19T09:29:48;98574.66;;;18.70;79.27
78317;BME280;67572;50.930;18.276;2023-09-19T09:33:07;98577.81;;;18.73;79.30
78317;BME280;67572;50.930;18.276;2023-09-19T09:36:14;98575.13;;;18.73;80.18
78317;BME280;67572;50.930;18.276;2023-09-19T09:39:30;98586.41;;;18.77;80.35
78317;BME280;67572;50.930;18.276;2023-09-19T09:42:35;98582.72;;;18.70;80.52
78317;BME280;67572;50.930;18.276;2023-09-19T09:45:42;98588.47;;;18.67;81.07
78317;BME280;67572;50.930;18.276;2023-09-19T09:48:56;98593.47;;;18.53;81.48
78317;BME280;67572;50.930;18.276;2023-09-19T09:52:17;98594.31;;;18.62;81.35
78317;BME280;67572;50.930;18.276;2023-09-19T09:55:26;98594.50;;;18.69;81.00
78317;BME280;67572;50.930;18.276;2023-09-19T09:58:29;98597.34;;;18.59;81.27
78317;BME280;67572;50.930;18.276;2023-09-19T10:01:47;98603.06;;;18.56;80.86
78317;BME280;67572;50.930;18.276;2023-09-19T10:04:52;98611.50;;;18.69;80.88
78317;BME280;67572;50.930;18.276;2023-09-19T10:08:11;98603.06;;;18.80;80.62
78317;BME280;67572;50.930;18.276;2023-09-19T10:11:16;98615.84;;;18.95;80.71
78317;BME280;67572;50.930;18.276;2023-09-19T10:14:25;98612.63;;;19.07;79.57
78317;BME280;67572;50.930;18.276;2023-09-19T10:17:34;98608.91;;;19.08;78.97
78317;BME280;67572;50.930;18.276;2023-09-19T10:20:39;98615.47;;;19.22;78.98
78317;BME280;67572;50.930;18.276;2023-09-19T10:23:46;98618.16;;;19.22;78.09
78317;BME280;67572;50.930;18.276;2023-09-19T10:26:50;98628.09;;;19.22;78.36
78317;BME280;67572;50.930;18.276;2023-09-19T10:29:56;98623.78;;;19.52;77.64
78317;BME280;67572;50.930;18.276;2023-09-19T10:33:04;98630.19;;;19.51;77.40
78317;BME280;67572;50.930;18.276;2023-09-19T10:36:09;98633.03;;;19.49;76.89
78317;BME280;67572;50.930;18.276;2023-09-19T10:39:15;98628.53;;;19.50;76.65
78317;BME280;67572;50.930;18.276;2023-09-19T10:42:23;98634.06;;;19.48;76.35
78317;BME280;67572;50.930;18.276;2023-09-19T10:45:32;98633.59;;;19.45;77.43
78317;BME280;67572;50.930;18.276;2023-09-19T10:48:38;98631.75;;;19.37;77.07
78317;BME280;67572;50.930;18.276;2023-09-19T10:51:47;98642.28;;;19.55;77.34
78317;BME280;67572;50.930;18.276;2023-09-19T10:54:53;98639.66;;;19.38;76.45
78317;BME280;67572;50.930;18.276;2023-09-19T10:58:00;98631.06;;;19.43;76.45
78317;BME280;67572;50.930;18.276;2023-09-19T11:01:05;98635.22;;;19.62;75.30
78317;BME280;67572;50.930;18.276;2023-09-19T11:04:24;98641.47;;;19.62;75.32
78317;BME280;67572;50.930;18.276;2023-09-19T11:07:29;98641.97;;;19.66;75.11
78317;BME280;67572;50.930;18.276;2023-09-19T11:10:46;98644.81;;;19.73;74.83
78317;BME280;67572;50.930;18.276;2023-09-19T11:14:15;98643.25;;;19.78;74.12
78317;BME280;67572;50.930;18.276;2023-09-19T11:17:42;98651.38;;;20.01;73.10
78317;BME280;67572;50.930;18.276;2023-09-19T11:29:26;98661.66;;;19.75;72.82
78317;BME280;67572;50.930;18.276;2023-09-19T11:36:13;98657.00;;;19.91;72.13
78317;BME280;67572;50.930;18.276;2023-09-19T11:39:25;98666.25;;;20.28;71.92
78317;BME280;67572;50.930;18.276;2023-09-19T11:42:42;98660.06;;;20.73;70.10
78317;BME280;67572;50.930;18.276;2023-09-19T11:46:07;98650.81;;;20.45;67.62
78317;BME280;67572;50.930;18.276;2023-09-19T11:49:13;98656.63;;;20.80;67.43
78317;BME280;67572;50.930;18.276;2023-09-19T11:52:21;98656.25;;;20.37;67.66
78317;BME280;67572;50.930;18.276;2023-09-19T11:55:28;98655.50;;;20.51;67.24
78317;BME280;67572;50.930;18.276;2023-09-19T11:58:34;98656.09;;;20.30;67.93
78317;BME280;67572;50.930;18.276;2023-09-19T12:01:50;98655.41;;;20.36;67.68
78317;BME280;67572;50.930;18.276;2023-09-19T12:04:59;98654.38;;;20.37;67.09
78317;BME280;67572;50.930;18.276;2023-09-19T12:08:04;98644.19;;;20.47;65.68
78317;BME280;67572;50.930;18.276;2023-09-19T12:11:14;98656.00;;;21.45;64.18
78317;BME280;67572;50.930;18.276;2023-09-19T12:14:22;98659.81;;;21.80;62.21
78317;BME280;67572;50.930;18.276;2023-09-19T12:17:36;98645.50;;;22.01;60.61
78317;BME280;67572;50.930;18.276;2023-09-19T12:20:43;98645.22;;;22.68;59.85
78317;BME280;67572;50.930;18.276;2023-09-19T12:23:59;98648.09;;;22.66;57.92
78317;BME280;67572;50.930;18.276;2023-09-19T12:27:04;98652.31;;;22.69;58.60
78317;BME280;67572;50.930;18.276;2023-09-19T12:30:09;98647.19;;;22.02;59.81
78317;BME280;67572;50.930;18.276;2023-09-19T12:33:30;98649.56;;;21.46;61.10
78317;BME280;67572;50.930;18.276;2023-09-19T12:36:34;98650.81;;;21.20;59.44
78317;BME280;67572;50.930;18.276;2023-09-19T12:39:38;98654.72;;;21.03;60.81
78317;BME280;67572;50.930;18.276;2023-09-19T12:42:43;98649.34;;;21.18;60.83
78317;BME280;67572;50.930;18.276;2023-09-19T12:45:47;98669.41;;;20.86;62.48
78317;BME280;67572;50.930;18.276;2023-09-19T12:49:16;98662.88;;;20.57;62.39
78317;BME280;67572;50.930;18.276;2023-09-19T12:52:20;98675.63;;;20.40;62.62
78317;BME280;67572;50.930;18.276;2023-09-19T12:55:25;98680.16;;;20.94;60.82
78317;BME280;67572;50.930;18.276;2023-09-19T12:58:29;98681.16;;;21.30;59.69
78317;BME280;67572;50.930;18.276;2023-09-19T13:01:34;98683.16;;;21.66;60.46
78317;BME280;67572;50.930;18.276;2023-09-19T13:04:52;98687.31;;;21.98;60.20
78317;BME280;67572;50.930;18.276;2023-09-19T13:07:55;98682.22;;;21.44;59.72
78317;BME280;67572;50.930;18.276;2023-09-19T13:11:03;98667.38;;;21.99;57.72
78317;BME280;67572;50.930;18.276;2023-09-19T13:14:20;98679.53;;;22.39;58.44
78317;BME280;67572;50.930;18.276;2023-09-19T13:17:42;98667.25;;;22.65;57.06
78317;BME280;67572;50.930;18.276;2023-09-19T13:21:05;98675.88;;;21.67;58.64
78317;BME280;67572;50.930;18.276;2023-09-19T13:24:19;98675.59;;;21.32;58.21
78317;BME280;67572;50.930;18.276;2023-09-19T13:27:22;98679.72;;;21.20;60.17
78317;BME280;67572;50.930;18.276;2023-09-19T13:30:26;98681.94;;;21.01;60.38
78317;BME280;67572;50.930;18.276;2023-09-19T13:33:32;98685.88;;;21.14;60.81
78317;BME280;67572;50.930;18.276;2023-09-19T13:36:37;98675.31;;;21.04;60.64
78317;BME280;67572;50.930;18.276;2023-09-19T13:39:40;98676.31;;;20.88;61.41
78317;BME280;67572;50.930;18.276;2023-09-19T13:42:49;98680.66;;;21.12;60.10
78317;BME280;67572;50.930;18.276;2023-09-19T13:45:55;98670.66;;;21.50;58.66
78317;BME280;67572;50.930;18.276;2023-09-19T13:48:59;98663.88;;;22.20;56.07
78317;BME280;67572;50.930;18.276;2023-09-19T13:52:06;98656.59;;;22.06;50.78
78317;BME280;67572;50.930;18.276;2023-09-19T13:55:10;98659.44;;;21.53;49.91
78317;BME280;67572;50.930;18.276;2023-09-19T13:58:21;98654.03;;;21.24;52.29
78317;BME280;67572;50.930;18.276;2023-09-19T14:01:26;98657.94;;;22.10;52.42
78317;BME280;67572;50.930;18.276;2023-09-19T14:04:29;98648.53;;;22.27;49.12
78317;BME280;67572;50.930;18.276;2023-09-19T14:07:34;98651.75;;;22.01;50.89
78317;BME280;67572;50.930;18.276;2023-09-19T14:10:38;98652.53;;;22.10;51.97
78317;BME280;67572;50.930;18.276;2023-09-19T14:13:43;98643.53;;;22.46;51.35
78317;BME280;67572;50.930;18.276;2023-09-19T14:16:49;98643.66;;;22.37;48.29
78317;BME280;67572;50.930;18.276;2023-09-19T14:19:53;98648.03;;;22.17;48.21
78317;BME280;67572;50.930;18.276;2023-09-19T14:22:57;98645.59;;;22.22;47.86
78317;BME280;67572;50.930;18.276;2023-09-19T14:26:02;98642.28;;;22.27;47.25
78317;BME280;67572;50.930;18.276;2023-09-19T14:29:07;98643.84;;;22.57;46.27
78317;BME280;67572;50.930;18.276;2023-09-19T14:32:11;98653.25;;;22.40;47.69
78317;BME280;67572;50.930;18.276;2023-09-19T14:35:15;98651.13;;;22.35;48.56
78317;BME280;67572;50.930;18.276;2023-09-19T14:38:20;98660.81;;;22.23;48.51
78317;BME280;67572;50.930;18.276;2023-09-19T14:41:25;98642.81;;;22.15;48.72
78317;BME280;67572;50.930;18.276;2023-09-19T14:44:28;98647.00;;;22.39;47.96
78317;BME280;67572;50.930;18.276;2023-09-19T14:47:32;98646.38;;;22.37;47.62
78317;BME280;67572;50.930;18.276;2023-09-19T14:50:35;98636.75;;;22.56;48.34
78317;BME280;67572;50.930;18.276;2023-09-19T14:53:40;98637.47;;;22.22;46.71
78317;BME280;67572;50.930;18.276;2023-09-19T14:56:44;98639.50;;;22.20;49.17
78317;BME280;67572;50.930;18.276;2023-09-19T14:59:47;98638.13;;;22.46;48.48
78317;BME280;67572;50.930;18.276;2023-09-19T15:02:51;98649.22;;;22.29;48.56
78317;BME280;67572;50.930;18.276;2023-09-19T15:05:59;98648.94;;;22.24;48.65
78317;BME280;67572;50.930;18.276;2023-09-19T15:09:04;98649.00;;;22.31;49.18
78317;BME280;67572;50.930;18.276;2023-09-19T15:12:10;98647.63;;;22.20;49.67
78317;BME280;67572;50.930;18.276;2023-09-19T15:15:16;98651.47;;;22.47;49.08
78317;BME280;67572;50.930;18.276;2023-09-19T15:18:19;98658.53;;;22.27;49.98
78317;BME280;67572;50.930;18.276;2023-09-19T15:21:23;98645.06;;;22.33;48.09
78317;BME280;67572;50.930;18.276;2023-09-19T15:24:28;98650.13;;;22.22;49.07
78317;BME280;67572;50.930;18.276;2023-09-19T15:27:31;98658.38;;;21.99;48.98
78317;BME280;67572;50.930;18.276;2023-09-19T15:30:37;98649.81;;;21.80;49.09
78317;BME280;67572;50.930;18.276;2023-09-19T15:33:40;98656.25;;;21.94;49.28
78317;BME280;67572;50.930;18.276;2023-09-19T15:36:46;98657.56;;;21.83;49.48
78317;BME280;67572;50.930;18.276;2023-09-19T15:39:51;98658.06;;;21.72;49.95
78317;BME280;67572;50.930;18.276;2023-09-19T15:42:54;98663.38;;;21.66;50.65
78317;BME280;67572;50.930;18.276;2023-09-19T15:46:00;98662.16;;;21.68;50.06
78317;BME280;67572;50.930;18.276;2023-09-19T15:49:04;98658.91;;;21.58;50.23
78317;BME280;67572;50.930;18.276;2023-09-19T15:52:09;98669.41;;;21.38;50.95
78317;BME280;67572;50.930;18.276;2023-09-19T15:55:13;98664.84;;;21.24;51.03
78317;BME280;67572;50.930;18.276;2023-09-19T15:58:17;98669.84;;;21.27;51.44
78317;BME280;67572;50.930;18.276;2023-09-19T16:01:20;98679.81;;;21.12;52.19
78317;BME280;67572;50.930;18.276;2023-09-19T16:04:24;98682.78;;;21.02;52.65
78317;BME280;67572;50.930;18.276;2023-09-19T16:07:27;98677.94;;;21.12;52.87
78317;BME280;67572;50.930;18.276;2023-09-19T16:10:35;98680.44;;;20.99;53.24
78317;BME280;67572;50.930;18.276;2023-09-19T16:13:41;98683.28;;;20.60;54.36
78317;BME280;67572;50.930;18.276;2023-09-19T16:16:45;98691.91;;;20.55;55.11
78317;BME280;67572;50.930;18.276;2023-09-19T16:19:49;98689.97;;;20.41;57.40
78317;BME280;67572;50.930;18.276;2023-09-19T16:22:52;98687.19;;;20.26;57.65
78317;BME280;67572;50.930;18.276;2023-09-19T16:26:02;98701.50;;;20.04;60.17